• Join FlightAware (Why Join?)
  • Login
  • US Flag 
11:55AM EDT


 

Airport Tracker/Info


-or-


 

Live Flight TrackerFlight Track Log ✈ QLK381D ✈ 18-Jun-2013 ✈ YHBA / HVB - YBBN / BNE

Flight Track Log - Related Links

Times and Time Zones

All times are in EDT time to prevent confusion due to time zone crossing. See the QLK381D flight status page for this flight to view local times or setup timezone preferences in your user account.

Time Position Orientation Groundspeed Altitude Reporting Facility
EDT Latitude Longitude Course Direction KTS MPH feet Rate Location/Type
04:11AM -25.3690 152.8378 35° Northeast 11,000  Level Aus ATC (Calculated)
04:11AM -25.3690 152.8378 35° Northeast 11,000 -2,400 Level Aus ATC (Calculated)
04:12AM -25.3278 152.8699 214° Southwest 164 189 7,400 -660 Descending Aus ATC (RADAR)
04:13AM -25.3732 152.8356 214° Southwest 213 245 9,900 2,700 Climbing Aus ATC (RADAR)
04:14AM -25.4025 152.8095 219° Southwest 223 257 11,500 2,520 Climbing Aus ATC (RADAR)
04:14AM -25.4443 152.7733 218° Southwest 232 267 13,500 2,160 Climbing Aus ATC (RADAR)
04:15AM -25.4719 152.7502 217° Southwest 226 260 14,600 720 Climbing Aus ATC (RADAR)
04:16AM -25.5634 152.7078 203° Southwest 275 316 15,000 180 Climbing Aus ATC (RADAR)
04:17AM -25.6280 152.7133 176° South 279 321 15,100  Climbing Aus ATC (RADAR)
04:18AM -25.7098 152.7172 178° South 270 311 15,000 -60 Descending Aus ATC (RADAR)
04:19AM -25.7544 152.7182 179° South 274 315 15,000  Level Aus ATC (RADAR)
04:20AM -25.8114 152.7205 178° South 276 318 15,000  Level Aus ATC (RADAR)
04:21AM -25.8939 152.7245 177° South 274 315 15,000  Level Aus ATC (RADAR)
04:21AM -25.9386 152.7268 177° South 276 318 15,000  Level Aus ATC (RADAR)
04:22AM -26.0088 152.7294 178° South 280 322 15,000  Level Aus ATC (RADAR)
04:23AM -26.0794 152.7330 177° South 278 320 15,000  Level Aus ATC (RADAR)
04:24AM -26.1247 152.7362 176° South 280 322 15,000  Level Aus ATC (RADAR)
04:25AM -26.1961 152.7390 178° South 280 322 15,000  Level Aus ATC (RADAR)
04:26AM -26.2935 152.7430 178° South 280 322 15,000  Level Aus ATC (RADAR)
04:27AM -26.3652 152.7459 178° South 281 323 15,000  Level Aus ATC (RADAR)
04:28AM -26.4565 152.7492 178° South 281 323 15,000  Level Aus ATC (RADAR)
04:29AM -26.5226 152.7527 177° South 287 330 15,100  Climbing Aus ATC (RADAR)
04:30AM -26.6171 152.7560 178° South 290 334 15,000 -60 Descending Aus ATC (RADAR)
04:31AM -26.7288 152.7610 178° South 275 316 15,000  Level Aus ATC (RADAR)
04:32AM -26.7860 152.7878 157° South 258 297 15,000  Level Aus ATC (RADAR)
04:33AM -26.7420 152.8489 51° Northeast 277 319 15,000  Level Aus ATC (RADAR)
04:34AM -26.7037 152.8432 352° North 243 280 15,000  Level Aus ATC (RADAR)
04:35AM -26.6528 152.8175 336° Northwest 213 245 15,000  Level Aus ATC (RADAR)
04:36AM -26.6146 152.7707 312° West 200 230 15,000  Level Aus ATC (RADAR)
04:36AM -26.5932 152.7423 310° West 202 232 15,000  Level Aus ATC (RADAR)
04:37AM -26.5981 152.6962 263° West 206 237 15,000  Level Aus ATC (RADAR)
04:38AM -26.6490 152.7030 173° South 255 293 15,000  Level Aus ATC (RADAR)
04:39AM -26.6873 152.7265 151° Southeast 266 306 15,000  Level Aus ATC (RADAR)
04:40AM -26.7527 152.7663 152° Southeast 264 304 15,000  Level Aus ATC (RADAR)
04:40AM -26.7749 152.8077 121° Southeast 268 308 15,000  Level Aus ATC (RADAR)
04:41AM -26.7126 152.8491 31° Northeast 263 303 15,000  Level Aus ATC (RADAR)
04:42AM -26.6699 152.8187 327° Northwest 214 246 15,000 -240 Level Aus ATC (RADAR)
04:43AM -26.6392 152.7724 307° West 199 229 14,600 -660 Descending Aus ATC (RADAR)
04:44AM -26.6682 152.7394 225° Southwest 236 272 14,000 -1,140 Descending Aus ATC (RADAR)
04:45AM -26.7408 152.7573 168° South 304 350 12,800 -1,440 Descending Aus ATC (RADAR)
04:45AM -26.7861 152.7850 151° Southeast 312 359 11,900 -1,560 Descending Aus ATC (RADAR)
04:47AM -26.8788 152.8405 152° Southeast 290 334 10,000 -1,500 Descending Aus ATC (RADAR)
04:47AM -26.9412 152.8781 152° Southeast 271 312 8,700 -1,380 Descending Aus ATC (RADAR)
04:48AM -26.9996 152.9141 151° Southeast 254 292 7,500 -1,320 Descending Aus ATC (RADAR)
04:49AM -27.0396 152.9396 150° Southeast 245 282 6,700 -1,140 Descending Aus ATC (RADAR)
04:50AM -27.0852 152.9669 152° Southeast 214 246 5,800 -1,080 Descending Aus ATC (RADAR)
04:50AM -27.1132 152.9852 150° Southeast 198 228 5,200 -420 Descending Aus ATC (RADAR)
04:52AM -27.1416 153.0479 117° Southeast 204 235 5,100 -120 Descending Aus ATC (RADAR)
04:52AM -27.1364 153.1019 84° East 209 241 5,000 -60 Descending Aus ATC (RADAR)
04:53AM -27.1296 153.1686 83° East 210 242 5,000 -360 Level Aus ATC (RADAR)
04:54AM -27.1261 153.2071 84° East 209 241 4,500 -720 Descending Aus ATC (RADAR)
04:55AM -27.1356 153.2606 101° East 199 229 4,000 -300 Descending Aus ATC (RADAR)
04:56AM -27.1698 153.2538 190° South 189 217 4,100 -300 Climbing Aus ATC (RADAR)
04:57AM -27.2164 153.2242 209° Southwest 188 216 3,500 -720 Descending Aus ATC (RADAR)
04:57AM -27.2499 153.2062 206° Southwest 162 186 2,800 -840 Descending Aus ATC (RADAR)
04:58AM -27.2821 153.1876 207° Southwest 154 177 2,100 -900 Descending Aus ATC (RADAR)
04:59AM -27.3043 153.1752 206° Southwest 134 154 1,500 -720 Descending Aus ATC (RADAR)
05:00AM -27.3326 153.1590 207° Southwest 125 144 1,000 -660 Descending Aus ATC (RADAR)
05:01AM -27.3566 153.1452 207° Southwest 115 132 400 -780 Descending Aus ATC (RADAR)